createdAt,value
2023-05-13T00:01:14.814Z,3.59
2023-05-13T00:03:42.321Z,3.58
2023-05-13T00:06:09.746Z,3.59
2023-05-13T00:08:37.077Z,3.54
2023-05-13T00:11:04.400Z,3.48
2023-05-13T00:13:31.293Z,3.43
2023-05-13T00:15:58.567Z,3.37
2023-05-13T00:18:25.960Z,3.33
2023-05-13T00:20:53.214Z,3.31
2023-05-13T00:23:20.122Z,3.30
2023-05-13T00:25:47.320Z,3.28
2023-05-13T00:28:15.184Z,3.24
2023-05-13T00:30:43.878Z,3.23
2023-05-13T00:33:11.020Z,3.22
2023-05-13T00:35:38.242Z,3.21
2023-05-13T00:38:05.420Z,3.20
2023-05-13T00:40:34.759Z,3.19
2023-05-13T00:43:01.621Z,3.16
2023-05-13T00:45:28.923Z,3.17
2023-05-13T00:47:55.929Z,3.17
2023-05-13T00:50:23.498Z,3.15
2023-05-13T00:52:51.299Z,3.12
2023-05-13T00:55:18.469Z,3.09
2023-05-13T00:57:45.445Z,3.07
2023-05-13T01:00:13.088Z,3.04
2023-05-13T01:02:50.410Z,3.00
2023-05-13T01:05:45.664Z,2.96
2023-05-13T01:08:31.989Z,2.90
2023-05-13T01:11:08.471Z,2.88
2023-05-13T01:13:43.137Z,2.87
2023-05-13T01:16:18.592Z,2.84
2023-05-13T01:18:51.531Z,2.82
2023-05-13T01:21:29.126Z,2.77
2023-05-13T01:23:56.304Z,2.78
2023-05-13T01:26:25.436Z,2.75
2023-05-13T01:28:52.512Z,2.72
2023-05-13T01:31:21.003Z,2.69
2023-05-13T01:33:49.423Z,2.66
2023-05-13T01:36:17.706Z,2.67
2023-05-13T01:38:45.143Z,2.66
2023-05-13T01:41:12.245Z,2.63
2023-05-13T01:43:39.210Z,2.64
2023-05-13T01:46:12.648Z,2.60
2023-05-13T01:48:39.556Z,2.57
2023-05-13T01:51:07.099Z,2.55
2023-05-13T01:53:34.001Z,2.54
2023-05-13T01:56:01.204Z,2.53
2023-05-13T01:58:28.001Z,2.54
2023-05-13T02:00:55.255Z,2.54
2023-05-13T02:03:22.172Z,2.53
2023-05-13T02:05:49.292Z,2.52
2023-05-13T02:08:16.289Z,2.47
2023-05-13T02:10:43.447Z,2.49
2023-05-13T02:13:10.323Z,2.46
2023-05-13T02:15:37.909Z,2.44
2023-05-13T02:18:04.928Z,2.44
2023-05-13T02:20:32.095Z,2.45
2023-05-13T02:22:58.988Z,2.45
2023-05-13T02:25:26.239Z,2.48
2023-05-13T02:27:53.092Z,2.47
2023-05-13T02:30:20.651Z,2.49
2023-05-13T02:32:47.845Z,2.49
2023-05-13T02:35:15.189Z,2.51
2023-05-13T02:37:42.003Z,2.50
2023-05-13T02:40:09.782Z,2.51
2023-05-13T02:42:36.798Z,2.54
2023-05-13T02:45:04.170Z,2.55
2023-05-13T02:47:31.272Z,2.56
2023-05-13T02:49:58.557Z,2.58
2023-05-13T02:52:25.484Z,2.58
2023-05-13T02:54:52.713Z,2.53
2023-05-13T02:57:19.580Z,2.50
2023-05-13T02:59:46.779Z,2.48
2023-05-13T03:02:13.617Z,2.51
2023-05-13T03:04:41.390Z,2.52
2023-05-13T03:07:08.359Z,2.55
2023-05-13T03:09:39.142Z,2.59
2023-05-13T03:12:06.947Z,2.65
2023-05-13T03:14:37.246Z,2.68
2023-05-13T03:17:04.654Z,2.69
2023-05-13T03:19:32.900Z,2.72
2023-05-13T03:21:59.804Z,2.77
2023-05-13T03:24:26.980Z,2.85
2023-05-13T03:26:54.031Z,2.97
2023-05-13T03:29:21.209Z,3.07
2023-05-13T03:31:48.997Z,3.19
2023-05-13T03:34:16.600Z,3.32
2023-05-13T03:36:43.498Z,3.47
2023-05-13T03:39:10.696Z,3.62
2023-05-13T03:41:37.786Z,3.73
2023-05-13T03:44:05.113Z,3.83
2023-05-13T03:46:32.334Z,3.95
2023-05-13T03:48:59.616Z,4.06
2023-05-13T03:51:26.581Z,4.20
2023-05-13T03:53:53.726Z,4.30
2023-05-13T03:56:21.690Z,4.43
2023-05-13T03:58:49.006Z,4.56
2023-05-13T04:01:15.917Z,4.72
2023-05-13T04:03:45.456Z,4.91
2023-05-13T04:06:14.068Z,5.05
2023-05-13T04:08:41.296Z,5.26
2023-05-13T04:11:08.205Z,5.42
2023-05-13T04:13:36.248Z,5.56
2023-05-13T04:16:03.778Z,5.70
2023-05-13T04:18:31.573Z,5.88
2023-05-13T04:20:58.424Z,6.12
2023-05-13T04:23:25.621Z,6.40
2023-05-13T04:25:52.827Z,6.75
2023-05-13T04:28:20.943Z,7.11
2023-05-13T04:30:47.828Z,7.48
2023-05-13T04:33:15.134Z,7.88
2023-05-13T04:35:42.223Z,8.31
2023-05-13T04:38:09.639Z,8.77
2023-05-13T04:40:36.768Z,9.19
2023-05-13T04:43:04.073Z,9.56
2023-05-13T04:45:31.952Z,9.85
2023-05-13T04:47:59.202Z,10.13
2023-05-13T04:50:26.435Z,10.42
2023-05-13T04:52:54.981Z,10.74
2023-05-13T04:55:22.834Z,11.03
2023-05-13T04:57:50.272Z,11.31
2023-05-13T05:00:17.414Z,11.58
2023-05-13T05:02:44.585Z,11.91
2023-05-13T05:05:11.581Z,12.27
2023-05-13T05:07:40.639Z,12.75
2023-05-13T05:10:08.661Z,13.30
2023-05-13T05:12:36.361Z,13.82
2023-05-13T05:15:03.328Z,14.32
2023-05-13T05:17:32.905Z,14.91
2023-05-13T05:19:59.934Z,15.41
2023-05-13T05:22:27.373Z,15.92
2023-05-13T05:24:54.267Z,16.40
2023-05-13T05:27:21.564Z,16.79
2023-05-13T05:29:48.464Z,17.23
2023-05-13T05:32:15.652Z,17.66
2023-05-13T05:34:42.525Z,18.03
2023-05-13T05:37:09.717Z,18.23
2023-05-13T05:39:36.624Z,18.38
2023-05-13T05:42:03.955Z,18.66
2023-05-13T05:44:30.820Z,18.88
2023-05-13T05:46:57.949Z,18.98
2023-05-13T05:49:24.821Z,18.75
2023-05-13T05:51:52.024Z,18.81
2023-05-13T05:54:18.916Z,18.95
2023-05-13T05:56:46.115Z,18.78
2023-05-13T05:59:12.942Z,18.60
2023-05-13T06:01:40.134Z,18.44
2023-05-13T06:04:07.199Z,18.32
2023-05-13T06:06:34.929Z,18.56
2023-05-13T06:09:01.899Z,18.81
2023-05-13T06:11:29.153Z,19.00
2023-05-13T06:13:57.637Z,19.04
2023-05-13T06:16:24.914Z,19.23
2023-05-13T06:18:51.876Z,19.36
2023-05-13T06:21:19.133Z,19.71
2023-05-13T06:23:46.181Z,19.77
2023-05-13T06:26:13.382Z,19.62
2023-05-13T06:28:40.326Z,19.26
2023-05-13T06:31:07.524Z,19.12
2023-05-13T06:33:34.496Z,18.53
2023-05-13T06:36:01.780Z,18.30
2023-05-13T06:38:28.669Z,18.48
2023-05-13T06:40:55.875Z,18.48
2023-05-13T06:43:22.820Z,18.10
2023-05-13T06:45:50.018Z,18.17
2023-05-13T06:48:16.904Z,18.44
2023-05-13T06:50:44.099Z,18.41
2023-05-13T06:53:13.642Z,18.54
2023-05-13T06:55:41.881Z,18.54
2023-05-13T06:58:09.598Z,18.24
2023-05-13T07:00:38.596Z,17.83
2023-05-13T07:03:06.961Z,17.80
2023-05-13T07:05:34.865Z,17.53
2023-05-13T07:08:06.735Z,17.48
2023-05-13T07:10:34.777Z,17.75
2023-05-13T07:13:02.567Z,17.90
2023-05-13T07:15:29.888Z,18.07
2023-05-13T07:17:56.857Z,17.84
2023-05-13T07:20:24.480Z,17.83
2023-05-13T07:22:51.994Z,18.14
2023-05-13T07:25:19.430Z,18.31
2023-05-13T07:27:46.358Z,18.49
2023-05-13T07:30:13.955Z,18.80
2023-05-13T07:32:40.906Z,18.89
2023-05-13T07:35:09.250Z,18.79
2023-05-13T07:37:37.163Z,18.74
2023-05-13T07:40:06.643Z,18.51
2023-05-13T07:42:33.455Z,18.38
2023-05-13T07:45:00.679Z,18.45
2023-05-13T07:47:29.140Z,18.13
2023-05-13T07:49:56.596Z,18.17
2023-05-13T07:52:23.558Z,18.30
2023-05-13T07:54:50.924Z,18.46
2023-05-13T07:57:17.840Z,18.63
2023-05-13T07:59:45.449Z,18.80
2023-05-13T08:02:12.689Z,18.84
2023-05-13T08:04:40.176Z,18.70
2023-05-13T08:07:07.073Z,18.35
2023-05-13T08:09:34.231Z,18.55
2023-05-13T08:12:01.087Z,18.81
2023-05-13T08:14:28.570Z,18.74
2023-05-13T08:16:56.075Z,18.80
2023-05-13T08:19:23.276Z,19.08
2023-05-13T08:21:50.355Z,19.11
2023-05-13T08:24:17.616Z,19.43
2023-05-13T08:26:44.552Z,19.70
2023-05-13T08:29:14.079Z,19.90
2023-05-13T08:31:41.825Z,19.93
2023-05-13T08:34:09.017Z,19.77
2023-05-13T08:36:35.891Z,19.97
2023-05-13T08:39:03.279Z,20.30
2023-05-13T08:41:33.501Z,20.10
2023-05-13T08:44:04.528Z,20.03
2023-05-13T08:46:34.509Z,19.78
2023-05-13T08:49:02.420Z,19.62
2023-05-13T08:51:29.696Z,19.66
2023-05-13T08:53:56.958Z,19.72
2023-05-13T08:56:25.712Z,20.02
2023-05-13T08:58:52.786Z,20.04
2023-05-13T09:01:19.882Z,20.28
2023-05-13T09:04:08.694Z,20.16
2023-05-13T09:06:35.518Z,20.18
2023-05-13T09:09:03.165Z,20.17
2023-05-13T09:11:30.058Z,20.55
2023-05-13T09:14:01.910Z,20.77
2023-05-13T09:16:29.984Z,20.35
2023-05-13T09:19:03.221Z,20.30
2023-05-13T09:21:31.971Z,20.24
2023-05-13T09:24:19.070Z,20.06
2023-05-13T09:26:46.606Z,19.92
2023-05-13T09:29:19.451Z,20.28
2023-05-13T09:31:55.002Z,20.34
2023-05-13T09:34:29.983Z,20.25
2023-05-13T09:37:08.263Z,20.46
2023-05-13T09:39:41.458Z,20.48
2023-05-13T09:42:18.754Z,20.21
2023-05-13T09:44:46.805Z,20.11
2023-05-13T09:47:15.005Z,20.25
2023-05-13T09:49:43.693Z,20.39
2023-05-13T09:52:11.988Z,20.46
2023-05-13T09:54:39.390Z,20.95
2023-05-13T09:57:06.806Z,21.61
2023-05-13T09:59:37.028Z,21.34
2023-05-13T10:02:06.899Z,20.67
2023-05-13T10:04:34.475Z,20.27
2023-05-13T10:07:03.819Z,19.27
2023-05-13T10:09:36.634Z,18.88
2023-05-13T10:12:06.754Z,18.68
2023-05-13T10:14:36.790Z,18.44
2023-05-13T10:17:05.453Z,18.18
2023-05-13T10:19:33.771Z,18.00
2023-05-13T10:22:01.559Z,17.89
2023-05-13T10:24:29.509Z,17.88
2023-05-13T10:26:57.273Z,17.87
2023-05-13T10:29:25.633Z,18.04
2023-05-13T10:31:54.291Z,18.30
2023-05-13T10:34:23.074Z,18.48
2023-05-13T10:37:07.127Z,18.58
2023-05-13T10:39:52.969Z,18.42
2023-05-13T10:43:09.016Z,18.34
2023-05-13T10:45:36.335Z,18.88
2023-05-13T10:48:12.168Z,19.19
2023-05-13T10:50:39.744Z,19.69
2023-05-13T10:53:17.834Z,19.76
2023-05-13T10:55:45.830Z,19.19
2023-05-13T10:58:14.595Z,19.45
2023-05-13T11:00:43.931Z,20.00
2023-05-13T11:03:13.888Z,20.24
2023-05-13T11:05:47.356Z,20.04
2023-05-13T11:08:43.513Z,19.63
2023-05-13T11:11:23.016Z,19.04
2023-05-13T11:13:54.879Z,18.89
2023-05-13T11:16:23.857Z,18.78
2023-05-13T11:18:52.630Z,18.61
2023-05-13T11:21:35.230Z,18.54
2023-05-13T11:24:04.270Z,18.76
2023-05-13T11:26:59.094Z,18.34
2023-05-13T11:29:29.829Z,18.38
2023-05-13T11:32:00.229Z,18.92
2023-05-13T11:34:27.948Z,19.36
2023-05-13T11:37:04.193Z,19.62
2023-05-13T11:39:32.009Z,19.40
2023-05-13T11:42:06.711Z,18.93
2023-05-13T11:44:34.686Z,18.35
2023-05-13T11:47:06.085Z,17.96
2023-05-13T11:49:42.900Z,17.73
2023-05-13T11:52:18.663Z,18.13
2023-05-13T11:54:46.510Z,18.40
2023-05-13T11:57:26.776Z,18.19
2023-05-13T11:59:58.172Z,18.09
2023-05-13T12:02:37.455Z,18.15
2023-05-13T12:05:06.745Z,18.16
2023-05-13T12:07:35.460Z,18.00
2023-05-13T12:10:03.989Z,18.21
2023-05-13T12:12:34.782Z,18.54
2023-05-13T12:15:07.715Z,18.87
2023-05-13T12:17:35.712Z,19.26
2023-05-13T12:20:08.729Z,19.15
2023-05-13T12:22:37.009Z,19.20
2023-05-13T12:25:35.123Z,19.32
2023-05-13T12:28:11.956Z,19.58
2023-05-13T12:30:41.361Z,19.53
2023-05-13T12:33:19.346Z,19.40
2023-05-13T12:35:48.468Z,19.11
2023-05-13T12:38:17.899Z,18.86
2023-05-13T12:40:46.566Z,18.62
2023-05-13T12:43:14.488Z,18.26
2023-05-13T12:45:45.075Z,18.00
2023-05-13T12:48:14.483Z,17.86
2023-05-13T12:50:41.421Z,17.66
2023-05-13T12:53:08.626Z,17.68
2023-05-13T12:55:39.967Z,17.75
2023-05-13T12:58:11.156Z,18.01
2023-05-13T13:00:38.298Z,18.14
2023-05-13T13:03:06.035Z,18.10
2023-05-13T13:05:33.516Z,17.93
2023-05-13T13:08:05.488Z,17.80
2023-05-13T13:10:32.535Z,17.58
2023-05-13T13:12:59.684Z,17.44
2023-05-13T13:15:26.527Z,17.32
2023-05-13T13:17:53.767Z,17.29
2023-05-13T13:20:20.759Z,17.28
2023-05-13T13:22:47.944Z,17.49
2023-05-13T13:25:14.891Z,17.81
2023-05-13T13:27:42.038Z,18.16
2023-05-13T13:30:09.295Z,18.41
2023-05-13T13:32:36.588Z,18.37
2023-05-13T13:35:05.691Z,18.06
2023-05-13T13:37:33.118Z,17.86
2023-05-13T13:40:00.177Z,17.76
2023-05-13T13:42:40.092Z,17.75
2023-05-13T13:45:10.723Z,17.73
2023-05-13T13:47:38.513Z,17.72
2023-05-13T13:50:06.501Z,17.77
2023-05-13T13:52:33.740Z,17.94
2023-05-13T13:55:00.693Z,18.21
2023-05-13T13:57:28.034Z,18.45
2023-05-13T13:59:54.887Z,18.61
2023-05-13T14:02:22.110Z,18.62
2023-05-13T14:04:49.161Z,18.48
2023-05-13T14:07:16.696Z,18.44
2023-05-13T14:09:43.555Z,18.37
2023-05-13T14:12:10.720Z,18.21
2023-05-13T14:14:37.586Z,18.13
2023-05-13T14:17:04.864Z,18.07
2023-05-13T14:19:31.736Z,18.14
2023-05-13T14:21:58.927Z,18.07
2023-05-13T14:24:27.163Z,18.11
2023-05-13T14:26:54.336Z,18.04
2023-05-13T14:29:21.180Z,18.11
2023-05-13T14:31:48.515Z,18.05
2023-05-13T14:34:16.632Z,17.98
2023-05-13T14:36:43.824Z,17.95
2023-05-13T14:39:10.935Z,17.93
2023-05-13T14:41:39.504Z,17.94
2023-05-13T14:44:06.512Z,17.94
2023-05-13T14:46:37.178Z,17.99
2023-05-13T14:49:04.110Z,17.93
2023-05-13T14:51:31.517Z,17.81
2023-05-13T14:53:58.377Z,17.73
2023-05-13T14:56:25.570Z,17.78
2023-05-13T14:58:53.095Z,17.90
2023-05-13T15:01:20.332Z,17.95
2023-05-13T15:03:47.296Z,17.85
2023-05-13T15:06:14.546Z,17.77
2023-05-13T15:08:41.554Z,17.64
2023-05-13T15:11:08.733Z,17.52
2023-05-13T15:13:36.917Z,17.45
2023-05-13T15:16:04.921Z,17.48
2023-05-13T15:18:31.941Z,17.41
2023-05-13T15:20:59.094Z,17.36
2023-05-13T15:23:26.023Z,17.25
2023-05-13T15:25:53.269Z,17.21
2023-05-13T15:28:20.163Z,17.19
2023-05-13T15:30:47.456Z,17.13
2023-05-13T15:33:14.462Z,17.18
2023-05-13T15:35:42.611Z,17.17
2023-05-13T15:38:10.871Z,17.25
2023-05-13T15:40:39.135Z,17.25
2023-05-13T15:43:06.026Z,17.26
2023-05-13T15:45:33.195Z,17.22
2023-05-13T15:48:00.079Z,17.19
2023-05-13T15:50:27.531Z,17.13
2023-05-13T15:52:54.821Z,17.07
2023-05-13T15:55:22.336Z,17.03
2023-05-13T15:57:50.485Z,16.94
2023-05-13T16:00:18.697Z,16.82
2023-05-13T16:02:45.607Z,16.70
2023-05-13T16:05:15.334Z,16.66
2023-05-13T16:07:42.548Z,16.58
2023-05-13T16:10:10.123Z,16.67
2023-05-13T16:12:37.487Z,16.69
2023-05-13T16:15:05.031Z,16.66
2023-05-13T16:17:31.977Z,16.58
2023-05-13T16:20:00.087Z,16.49
2023-05-13T16:22:30.442Z,16.44
2023-05-13T16:25:02.518Z,16.40
2023-05-13T16:27:29.752Z,16.35
2023-05-13T16:29:58.586Z,16.29
2023-05-13T16:32:26.009Z,16.26
2023-05-13T16:34:53.557Z,16.27
2023-05-13T16:37:20.533Z,16.24
2023-05-13T16:39:47.802Z,16.24
2023-05-13T16:42:14.735Z,16.26
2023-05-13T16:44:41.903Z,16.21
2023-05-13T16:47:09.247Z,16.17
2023-05-13T16:49:36.876Z,16.09
2023-05-13T16:52:04.701Z,16.04
2023-05-13T16:54:32.197Z,16.03
2023-05-13T16:56:59.635Z,15.96
2023-05-13T16:59:28.382Z,15.97
2023-05-13T17:01:55.493Z,15.95
2023-05-13T17:04:22.828Z,15.94
2023-05-13T17:06:49.782Z,15.88
2023-05-13T17:09:16.945Z,15.86
2023-05-13T17:11:43.802Z,15.82
2023-05-13T17:14:10.998Z,15.79
2023-05-13T17:16:38.671Z,15.79
2023-05-13T17:19:05.960Z,15.75
2023-05-13T17:21:32.830Z,15.72
2023-05-13T17:24:00.637Z,15.70
2023-05-13T17:26:28.025Z,15.66
2023-05-13T17:28:55.182Z,15.61
2023-05-13T17:31:23.635Z,15.56
2023-05-13T17:33:50.841Z,15.55
2023-05-13T17:36:18.079Z,15.52
2023-05-13T17:38:45.398Z,15.48
2023-05-13T17:41:12.272Z,15.44
2023-05-13T17:43:39.461Z,15.42
2023-05-13T17:46:06.344Z,15.37
2023-05-13T17:48:33.569Z,15.30
2023-05-13T17:51:00.580Z,15.21
2023-05-13T17:53:27.810Z,15.13
2023-05-13T17:55:54.721Z,15.04
2023-05-13T17:58:21.968Z,14.96
2023-05-13T18:00:49.636Z,14.88
2023-05-13T18:03:16.948Z,14.79
2023-05-13T18:05:43.950Z,14.70
2023-05-13T18:08:11.257Z,14.57
2023-05-13T18:10:38.404Z,14.46
2023-05-13T18:13:05.785Z,14.32
2023-05-13T18:15:32.737Z,14.19
2023-05-13T18:18:01.220Z,14.07
2023-05-13T18:20:28.185Z,13.90
2023-05-13T18:22:55.317Z,13.77
2023-05-13T18:25:22.190Z,13.65
2023-05-13T18:27:50.619Z,13.54
2023-05-13T18:30:18.475Z,13.41
2023-05-13T18:32:45.903Z,13.28
2023-05-13T18:35:12.961Z,13.17
2023-05-13T18:37:40.194Z,13.06
2023-05-13T18:40:07.788Z,12.97
2023-05-13T18:42:34.965Z,12.84
2023-05-13T18:45:01.853Z,12.75
2023-05-13T18:47:29.111Z,12.65
2023-05-13T18:49:56.169Z,12.52
2023-05-13T18:52:23.345Z,12.39
2023-05-13T18:54:50.237Z,12.29
2023-05-13T18:57:17.963Z,12.19
2023-05-13T18:59:44.864Z,12.10
2023-05-13T19:02:12.224Z,12.03
2023-05-13T19:04:39.221Z,11.96
2023-05-13T19:07:06.488Z,11.89
2023-05-13T19:09:35.819Z,11.83
2023-05-13T19:12:03.167Z,11.79
2023-05-13T19:14:30.082Z,11.74
2023-05-13T19:16:57.327Z,11.70
2023-05-13T19:19:24.692Z,11.68
2023-05-13T19:21:52.155Z,11.64
2023-05-13T19:24:19.082Z,11.61
2023-05-13T19:26:46.294Z,11.58
2023-05-13T19:29:13.225Z,11.56
2023-05-13T19:31:40.533Z,11.52
2023-05-13T19:34:07.774Z,11.48
2023-05-13T19:36:34.985Z,11.45
2023-05-13T19:39:01.979Z,11.43
2023-05-13T19:41:29.212Z,11.40
2023-05-13T19:43:56.105Z,11.38
2023-05-13T19:46:23.430Z,11.35
2023-05-13T19:48:50.419Z,11.33
2023-05-13T19:51:18.217Z,11.30
2023-05-13T19:53:45.249Z,11.26
2023-05-13T19:56:12.613Z,11.26
2023-05-13T19:58:39.549Z,11.26
2023-05-13T20:01:06.693Z,11.25
2023-05-13T20:03:33.701Z,11.23
2023-05-13T20:06:01.910Z,11.23
2023-05-13T20:08:31.587Z,11.23
2023-05-13T20:10:59.345Z,11.22
2023-05-13T20:13:26.235Z,11.22
2023-05-13T20:15:53.468Z,11.20
2023-05-13T20:18:20.440Z,11.17
2023-05-13T20:20:48.162Z,11.14
2023-05-13T20:23:15.100Z,11.11
2023-05-13T20:25:42.364Z,11.07
2023-05-13T20:28:09.249Z,11.07
2023-05-13T20:30:36.463Z,11.05
2023-05-13T20:33:03.512Z,11.04
2023-05-13T20:35:30.713Z,11.02
2023-05-13T20:37:58.569Z,11.02
2023-05-13T20:40:25.833Z,11.00
2023-05-13T20:42:52.738Z,10.97
2023-05-13T20:45:19.963Z,10.94
2023-05-13T20:47:46.893Z,10.92
2023-05-13T20:50:14.222Z,10.90
2023-05-13T20:52:41.228Z,10.90
2023-05-13T20:55:08.864Z,10.88
2023-05-13T20:57:35.720Z,10.82
2023-05-13T21:00:03.071Z,10.80
2023-05-13T21:02:30.031Z,10.78
2023-05-13T21:04:57.195Z,10.79
2023-05-13T21:07:24.097Z,10.80
2023-05-13T21:09:51.428Z,10.81
2023-05-13T21:12:18.301Z,10.81
2023-05-13T21:14:45.450Z,10.80
2023-05-13T21:17:12.351Z,10.81
2023-05-13T21:19:39.801Z,10.80
2023-05-13T21:22:06.648Z,10.77
2023-05-13T21:24:33.886Z,10.72
2023-05-13T21:27:00.772Z,10.65
2023-05-13T21:29:30.228Z,10.62
2023-05-13T21:31:57.401Z,10.59
2023-05-13T21:34:24.657Z,10.57
2023-05-13T21:36:52.597Z,10.56
2023-05-13T21:39:19.859Z,10.56
2023-05-13T21:41:47.753Z,10.55
2023-05-13T21:44:14.884Z,10.55
2023-05-13T21:46:41.791Z,10.51
2023-05-13T21:49:09.040Z,10.53
2023-05-13T21:51:35.947Z,10.53
2023-05-13T21:54:03.082Z,10.54
2023-05-13T21:56:29.897Z,10.53
2023-05-13T21:58:57.094Z,10.51
2023-05-13T22:01:24.054Z,10.45
2023-05-13T22:03:51.383Z,10.37
2023-05-13T22:06:18.212Z,10.25
2023-05-13T22:08:45.798Z,10.12
2023-05-13T22:11:12.755Z,10.02
2023-05-13T22:13:40.063Z,9.89
2023-05-13T22:16:07.125Z,9.80
2023-05-13T22:18:34.673Z,9.70
2023-05-13T22:21:01.805Z,9.61
2023-05-13T22:23:28.980Z,9.53
2023-05-13T22:25:55.897Z,9.45
2023-05-13T22:28:23.106Z,9.36
2023-05-13T22:30:52.886Z,9.22
2023-05-13T22:33:20.075Z,9.08
2023-05-13T22:35:47.336Z,8.93
2023-05-13T22:38:14.567Z,8.82
2023-05-13T22:40:41.569Z,8.69
2023-05-13T22:43:08.755Z,8.58
2023-05-13T22:45:36.938Z,8.47
2023-05-13T22:48:04.256Z,8.33
2023-05-13T22:50:31.184Z,8.24
2023-05-13T22:52:58.334Z,8.12
2023-05-13T22:55:25.223Z,8.04
2023-05-13T22:57:52.384Z,7.96
2023-05-13T23:00:19.265Z,7.89
2023-05-13T23:02:46.486Z,7.80
2023-05-13T23:05:13.528Z,7.75
2023-05-13T23:07:40.671Z,7.64
2023-05-13T23:10:07.995Z,7.57
2023-05-13T23:12:35.222Z,7.49
2023-05-13T23:15:02.241Z,7.40
2023-05-13T23:17:29.829Z,7.32
2023-05-13T23:19:56.741Z,7.22
2023-05-13T23:22:23.923Z,7.14
2023-05-13T23:24:50.883Z,7.08
2023-05-13T23:27:18.128Z,7.00
2023-05-13T23:29:45.076Z,6.92
2023-05-13T23:32:12.370Z,6.86
2023-05-13T23:34:39.285Z,6.80
2023-05-13T23:37:06.586Z,6.72
2023-05-13T23:39:33.500Z,6.64
2023-05-13T23:42:00.641Z,6.62
2023-05-13T23:44:28.808Z,6.56
2023-05-13T23:46:55.950Z,6.51
2023-05-13T23:49:22.915Z,6.45
2023-05-13T23:51:50.056Z,6.41
2023-05-13T23:54:16.938Z,6.34
2023-05-13T23:56:44.104Z,6.30
2023-05-13T23:59:11.173Z,6.23
